KDNN/DNN METAR and TAF weather

Enter ICAO airport designator
Station Type Date Time Source
KDNN METAR 2021/08/01 16:55 UTC NOAA

KDNN 011655Z AUTO 31005KT 10SM CLR 30/19 A2999 RMK AO2


Station Type Date Time Source
KDNN Decoded METAR 2021/08/01 16:55 UTC NOAA

Dalton, Dalton Municipal Airport, GA, United States (KDNN) 34-43-18N 084-52-09W
Aug 01, 2021 - 12:55 PM EDT / 2021.08.01 1655 UTC
Wind: from the NW (310 degrees) at 6 MPH (5 KT):0
Visibility: 10 mile(s):0
Sky conditions: clear
Temperature: 86 F (30 C)
Dew Point: 66 F (19 C)
Relative Humidity: 51%
Pressure (altimeter): 29.99 in. Hg (1015 hPa)
ob: KDNN 011655Z AUTO 31005KT 10SM CLR 30/19 A2999 RMK AO2
cycle: 17

Station Type Date Time Source
KDNN TAF UTC NOAA

Error!

Example: see airport list